sensor_id;sensor_type;location;lat;lon;timestamp;P1;durP1;ratioP1;P2;durP2;ratioP2
56043;SDS011;41912;51.022;3.664;2023-04-15T00:00:28;5.28;;;3.05;;
56043;SDS011;41912;51.022;3.664;2023-04-15T00:02:54;5.28;;;2.90;;
56043;SDS011;41912;51.022;3.664;2023-04-15T00:05:20;4.90;;;2.15;;
56043;SDS011;41912;51.022;3.664;2023-04-15T00:07:45;5.15;;;2.65;;
56043;SDS011;41912;51.022;3.664;2023-04-15T00:10:11;6.32;;;2.50;;
56043;SDS011;41912;51.022;3.664;2023-04-15T00:12:38;10.18;;;2.75;;
56043;SDS011;41912;51.022;3.664;2023-04-15T00:15:04;5.88;;;3.03;;
56043;SDS011;41912;51.022;3.664;2023-04-15T00:17:30;4.75;;;2.55;;
56043;SDS011;41912;51.022;3.664;2023-04-15T00:19:56;6.68;;;3.22;;
56043;SDS011;41912;51.022;3.664;2023-04-15T00:22:23;10.63;;;3.65;;
56043;SDS011;41912;51.022;3.664;2023-04-15T00:24:51;5.25;;;3.25;;
56043;SDS011;41912;51.022;3.664;2023-04-15T00:27:17;5.43;;;2.80;;
56043;SDS011;41912;51.022;3.664;2023-04-15T00:29:43;6.57;;;3.53;;
56043;SDS011;41912;51.022;3.664;2023-04-15T00:32:09;6.72;;;3.08;;
56043;SDS011;41912;51.022;3.664;2023-04-15T00:34:34;4.80;;;3.00;;
56043;SDS011;41912;51.022;3.664;2023-04-15T00:37:00;6.88;;;3.08;;
56043;SDS011;41912;51.022;3.664;2023-04-15T00:39:26;6.07;;;2.90;;
56043;SDS011;41912;51.022;3.664;2023-04-15T00:41:52;5.15;;;2.88;;
56043;SDS011;41912;51.022;3.664;2023-04-15T00:44:18;5.60;;;2.83;;
56043;SDS011;41912;51.022;3.664;2023-04-15T00:46:44;6.82;;;3.30;;
56043;SDS011;41912;51.022;3.664;2023-04-15T00:49:11;5.35;;;2.45;;
56043;SDS011;41912;51.022;3.664;2023-04-15T00:51:37;8.10;;;2.80;;
56043;SDS011;41912;51.022;3.664;2023-04-15T00:54:03;5.65;;;2.90;;
56043;SDS011;41912;51.022;3.664;2023-04-15T00:56:29;4.63;;;2.60;;
56043;SDS011;41912;51.022;3.664;2023-04-15T00:58:55;5.28;;;3.17;;
56043;SDS011;41912;51.022;3.664;2023-04-15T01:01:23;8.27;;;2.83;;
56043;SDS011;41912;51.022;3.664;2023-04-15T01:03:50;6.97;;;3.17;;
56043;SDS011;41912;51.022;3.664;2023-04-15T01:06:16;4.28;;;3.03;;
56043;SDS011;41912;51.022;3.664;2023-04-15T01:08:43;4.07;;;3.10;;
56043;SDS011;41912;51.022;3.664;2023-04-15T01:11:12;5.70;;;3.10;;
56043;SDS011;41912;51.022;3.664;2023-04-15T01:13:38;6.82;;;3.67;;
56043;SDS011;41912;51.022;3.664;2023-04-15T01:16:04;5.68;;;3.22;;
56043;SDS011;41912;51.022;3.664;2023-04-15T01:18:31;4.75;;;2.97;;
56043;SDS011;41912;51.022;3.664;2023-04-15T01:20:57;5.43;;;3.03;;
56043;SDS011;41912;51.022;3.664;2023-04-15T01:23:26;5.32;;;3.40;;
56043;SDS011;41912;51.022;3.664;2023-04-15T01:25:52;5.50;;;3.03;;
56043;SDS011;41912;51.022;3.664;2023-04-15T01:28:18;8.52;;;3.42;;
56043;SDS011;41912;51.022;3.664;2023-04-15T01:30:44;6.20;;;3.50;;
56043;SDS011;41912;51.022;3.664;2023-04-15T01:33:10;6.40;;;3.67;;
56043;SDS011;41912;51.022;3.664;2023-04-15T01:35:36;5.32;;;3.55;;
56043;SDS011;41912;51.022;3.664;2023-04-15T01:38:04;5.10;;;3.88;;
56043;SDS011;41912;51.022;3.664;2023-04-15T01:40:31;5.13;;;3.58;;
56043;SDS011;41912;51.022;3.664;2023-04-15T01:42:57;6.15;;;3.92;;
56043;SDS011;41912;51.022;3.664;2023-04-15T01:45:23;6.53;;;3.80;;
56043;SDS011;41912;51.022;3.664;2023-04-15T01:47:49;4.60;;;3.42;;
56043;SDS011;41912;51.022;3.664;2023-04-15T01:50:15;5.78;;;3.85;;
56043;SDS011;41912;51.022;3.664;2023-04-15T01:52:41;4.82;;;3.63;;
56043;SDS011;41912;51.022;3.664;2023-04-15T01:55:07;5.10;;;3.92;;
56043;SDS011;41912;51.022;3.664;2023-04-15T01:57:33;5.65;;;3.95;;
56043;SDS011;41912;51.022;3.664;2023-04-15T01:59:59;9.30;;;4.00;;
56043;SDS011;41912;51.022;3.664;2023-04-15T02:02:25;4.78;;;3.80;;
56043;SDS011;41912;51.022;3.664;2023-04-15T02:04:50;5.68;;;3.55;;
56043;SDS011;41912;51.022;3.664;2023-04-15T02:07:17;4.90;;;3.53;;
56043;SDS011;41912;51.022;3.664;2023-04-15T02:09:43;5.10;;;3.50;;
56043;SDS011;41912;51.022;3.664;2023-04-15T02:12:10;5.05;;;4.15;;
56043;SDS011;41912;51.022;3.664;2023-04-15T02:14:36;5.00;;;3.78;;
56043;SDS011;41912;51.022;3.664;2023-04-15T02:17:02;6.40;;;3.53;;
56043;SDS011;41912;51.022;3.664;2023-04-15T02:19:31;7.22;;;3.97;;
56043;SDS011;41912;51.022;3.664;2023-04-15T02:21:58;6.57;;;3.95;;
56043;SDS011;41912;51.022;3.664;2023-04-15T02:24:25;5.00;;;3.72;;
56043;SDS011;41912;51.022;3.664;2023-04-15T02:26:51;5.28;;;3.97;;
56043;SDS011;41912;51.022;3.664;2023-04-15T02:29:17;6.28;;;3.75;;
56043;SDS011;41912;51.022;3.664;2023-04-15T02:31:42;6.53;;;4.13;;
56043;SDS011;41912;51.022;3.664;2023-04-15T02:34:09;5.88;;;3.65;;
56043;SDS011;41912;51.022;3.664;2023-04-15T02:36:34;6.57;;;3.72;;
56043;SDS011;41912;51.022;3.664;2023-04-15T02:39:00;4.93;;;3.58;;
56043;SDS011;41912;51.022;3.664;2023-04-15T02:41:26;5.90;;;3.10;;
56043;SDS011;41912;51.022;3.664;2023-04-15T02:43:52;7.65;;;3.92;;
56043;SDS011;41912;51.022;3.664;2023-04-15T02:46:18;7.80;;;3.88;;
56043;SDS011;41912;51.022;3.664;2023-04-15T02:48:45;7.13;;;3.72;;
56043;SDS011;41912;51.022;3.664;2023-04-15T02:51:18;9.60;;;4.63;;
56043;SDS011;41912;51.022;3.664;2023-04-15T02:53:45;5.80;;;3.75;;
56043;SDS011;41912;51.022;3.664;2023-04-15T02:56:12;4.88;;;3.60;;
56043;SDS011;41912;51.022;3.664;2023-04-15T02:58:39;4.82;;;4.00;;
56043;SDS011;41912;51.022;3.664;2023-04-15T03:01:05;5.78;;;3.88;;
56043;SDS011;41912;51.022;3.664;2023-04-15T03:03:32;6.78;;;4.00;;
56043;SDS011;41912;51.022;3.664;2023-04-15T03:05:58;6.63;;;3.90;;
56043;SDS011;41912;51.022;3.664;2023-04-15T03:08:24;9.57;;;5.07;;
56043;SDS011;41912;51.022;3.664;2023-04-15T03:10:50;5.78;;;4.15;;
56043;SDS011;41912;51.022;3.664;2023-04-15T03:13:17;5.95;;;4.68;;
56043;SDS011;41912;51.022;3.664;2023-04-15T03:15:45;6.85;;;5.15;;
56043;SDS011;41912;51.022;3.664;2023-04-15T03:18:11;6.25;;;4.78;;
56043;SDS011;41912;51.022;3.664;2023-04-15T03:20:36;6.22;;;4.80;;
56043;SDS011;41912;51.022;3.664;2023-04-15T03:23:02;6.55;;;4.75;;
56043;SDS011;41912;51.022;3.664;2023-04-15T03:25:28;7.47;;;5.45;;
56043;SDS011;41912;51.022;3.664;2023-04-15T03:27:53;13.07;;;7.15;;
56043;SDS011;41912;51.022;3.664;2023-04-15T03:30:19;7.93;;;5.72;;
56043;SDS011;41912;51.022;3.664;2023-04-15T03:32:45;9.25;;;5.93;;
56043;SDS011;41912;51.022;3.664;2023-04-15T03:35:11;7.97;;;6.18;;
56043;SDS011;41912;51.022;3.664;2023-04-15T03:37:36;6.97;;;5.82;;
56043;SDS011;41912;51.022;3.664;2023-04-15T03:40:02;10.27;;;5.90;;
56043;SDS011;41912;51.022;3.664;2023-04-15T03:42:28;7.78;;;6.32;;
56043;SDS011;41912;51.022;3.664;2023-04-15T03:44:54;11.90;;;6.72;;
56043;SDS011;41912;51.022;3.664;2023-04-15T03:47:19;8.50;;;6.50;;
56043;SDS011;41912;51.022;3.664;2023-04-15T03:49:45;8.73;;;5.90;;
56043;SDS011;41912;51.022;3.664;2023-04-15T03:52:11;13.63;;;7.30;;
56043;SDS011;41912;51.022;3.664;2023-04-15T03:54:36;10.63;;;7.20;;
56043;SDS011;41912;51.022;3.664;2023-04-15T03:57:02;12.32;;;8.05;;
56043;SDS011;41912;51.022;3.664;2023-04-15T03:59:28;9.60;;;7.15;;
56043;SDS011;41912;51.022;3.664;2023-04-15T04:01:53;10.05;;;7.40;;
56043;SDS011;41912;51.022;3.664;2023-04-15T04:04:19;10.55;;;7.53;;
56043;SDS011;41912;51.022;3.664;2023-04-15T04:06:45;13.35;;;8.27;;
56043;SDS011;41912;51.022;3.664;2023-04-15T04:09:10;10.98;;;8.40;;
56043;SDS011;41912;51.022;3.664;2023-04-15T04:11:36;11.45;;;8.15;;
56043;SDS011;41912;51.022;3.664;2023-04-15T04:14:01;10.60;;;7.95;;
56043;SDS011;41912;51.022;3.664;2023-04-15T04:16:27;13.82;;;8.95;;
56043;SDS011;41912;51.022;3.664;2023-04-15T04:18:53;12.75;;;8.13;;
56043;SDS011;41912;51.022;3.664;2023-04-15T04:21:18;13.15;;;9.48;;
56043;SDS011;41912;51.022;3.664;2023-04-15T04:23:45;13.68;;;9.02;;
56043;SDS011;41912;51.022;3.664;2023-04-15T04:26:11;14.95;;;10.55;;
56043;SDS011;41912;51.022;3.664;2023-04-15T04:28:36;16.25;;;10.80;;
56043;SDS011;41912;51.022;3.664;2023-04-15T04:31:04;15.85;;;10.63;;
56043;SDS011;41912;51.022;3.664;2023-04-15T04:33:30;17.25;;;11.02;;
56043;SDS011;41912;51.022;3.664;2023-04-15T04:35:56;18.83;;;11.38;;
56043;SDS011;41912;51.022;3.664;2023-04-15T04:38:22;18.10;;;11.18;;
56043;SDS011;41912;51.022;3.664;2023-04-15T04:40:47;17.95;;;11.82;;
56043;SDS011;41912;51.022;3.664;2023-04-15T04:43:13;22.33;;;12.43;;
56043;SDS011;41912;51.022;3.664;2023-04-15T04:45:39;21.02;;;12.80;;
56043;SDS011;41912;51.022;3.664;2023-04-15T04:48:05;15.88;;;9.93;;
56043;SDS011;41912;51.022;3.664;2023-04-15T04:50:33;15.10;;;9.77;;
56043;SDS011;41912;51.022;3.664;2023-04-15T04:52:59;18.58;;;8.90;;
56043;SDS011;41912;51.022;3.664;2023-04-15T04:55:25;15.80;;;8.32;;
56043;SDS011;41912;51.022;3.664;2023-04-15T04:57:51;12.15;;;8.30;;
56043;SDS011;41912;51.022;3.664;2023-04-15T05:00:17;17.10;;;8.20;;
56043;SDS011;41912;51.022;3.664;2023-04-15T05:02:43;13.55;;;7.38;;
56043;SDS011;41912;51.022;3.664;2023-04-15T05:05:09;15.38;;;7.82;;
56043;SDS011;41912;51.022;3.664;2023-04-15T05:07:36;12.93;;;7.38;;
56043;SDS011;41912;51.022;3.664;2023-04-15T05:10:02;12.07;;;7.18;;
56043;SDS011;41912;51.022;3.664;2023-04-15T05:12:28;13.00;;;7.95;;
56043;SDS011;41912;51.022;3.664;2023-04-15T05:14:53;12.98;;;7.93;;
56043;SDS011;41912;51.022;3.664;2023-04-15T05:17:19;14.15;;;8.00;;
56043;SDS011;41912;51.022;3.664;2023-04-15T05:19:45;16.25;;;7.28;;
56043;SDS011;41912;51.022;3.664;2023-04-15T05:22:10;15.07;;;7.65;;
56043;SDS011;41912;51.022;3.664;2023-04-15T05:24:36;13.25;;;7.75;;
56043;SDS011;41912;51.022;3.664;2023-04-15T05:27:01;16.20;;;7.30;;
56043;SDS011;41912;51.022;3.664;2023-04-15T05:29:28;14.02;;;7.05;;
56043;SDS011;41912;51.022;3.664;2023-04-15T05:31:53;13.70;;;7.78;;
56043;SDS011;41912;51.022;3.664;2023-04-15T05:34:20;12.55;;;7.70;;
56043;SDS011;41912;51.022;3.664;2023-04-15T05:36:45;12.15;;;7.47;;
56043;SDS011;41912;51.022;3.664;2023-04-15T05:39:11;11.77;;;7.18;;
56043;SDS011;41912;51.022;3.664;2023-04-15T05:41:36;14.93;;;7.80;;
56043;SDS011;41912;51.022;3.664;2023-04-15T05:44:02;14.02;;;7.50;;
56043;SDS011;41912;51.022;3.664;2023-04-15T05:46:28;14.05;;;7.63;;
56043;SDS011;41912;51.022;3.664;2023-04-15T05:48:53;14.30;;;8.30;;
56043;SDS011;41912;51.022;3.664;2023-04-15T05:51:19;12.95;;;7.15;;
56043;SDS011;41912;51.022;3.664;2023-04-15T05:53:45;17.55;;;8.25;;
56043;SDS011;41912;51.022;3.664;2023-04-15T05:56:10;16.02;;;7.97;;
56043;SDS011;41912;51.022;3.664;2023-04-15T05:58:36;20.55;;;9.80;;
56043;SDS011;41912;51.022;3.664;2023-04-15T06:01:02;13.95;;;8.65;;
56043;SDS011;41912;51.022;3.664;2023-04-15T06:03:28;14.80;;;8.80;;
56043;SDS011;41912;51.022;3.664;2023-04-15T06:05:54;17.10;;;9.50;;
56043;SDS011;41912;51.022;3.664;2023-04-15T06:08:20;24.42;;;10.38;;
56043;SDS011;41912;51.022;3.664;2023-04-15T06:10:46;18.20;;;10.60;;
56043;SDS011;41912;51.022;3.664;2023-04-15T06:13:12;23.02;;;10.65;;
56043;SDS011;41912;51.022;3.664;2023-04-15T06:15:37;15.85;;;9.57;;
56043;SDS011;41912;51.022;3.664;2023-04-15T06:18:03;23.27;;;11.73;;
56043;SDS011;41912;51.022;3.664;2023-04-15T06:20:29;18.63;;;9.60;;
56043;SDS011;41912;51.022;3.664;2023-04-15T06:22:54;15.95;;;8.98;;
56043;SDS011;41912;51.022;3.664;2023-04-15T06:25:21;17.35;;;9.20;;
56043;SDS011;41912;51.022;3.664;2023-04-15T06:27:47;17.38;;;9.93;;
56043;SDS011;41912;51.022;3.664;2023-04-15T06:30:12;14.43;;;8.73;;
56043;SDS011;41912;51.022;3.664;2023-04-15T06:32:38;17.13;;;8.48;;
56043;SDS011;41912;51.022;3.664;2023-04-15T06:35:04;16.25;;;8.35;;
56043;SDS011;41912;51.022;3.664;2023-04-15T06:37:30;18.08;;;9.05;;
56043;SDS011;41912;51.022;3.664;2023-04-15T06:39:56;19.83;;;8.88;;
56043;SDS011;41912;51.022;3.664;2023-04-15T06:42:22;14.57;;;8.65;;
56043;SDS011;41912;51.022;3.664;2023-04-15T06:44:48;15.07;;;8.43;;
56043;SDS011;41912;51.022;3.664;2023-04-15T06:47:14;19.40;;;8.50;;
56043;SDS011;41912;51.022;3.664;2023-04-15T06:49:40;17.85;;;8.48;;
56043;SDS011;41912;51.022;3.664;2023-04-15T06:52:07;14.32;;;8.63;;
56043;SDS011;41912;51.022;3.664;2023-04-15T06:54:33;15.65;;;8.70;;
56043;SDS011;41912;51.022;3.664;2023-04-15T06:56:58;15.27;;;8.23;;
56043;SDS011;41912;51.022;3.664;2023-04-15T06:59:24;14.25;;;7.88;;
56043;SDS011;41912;51.022;3.664;2023-04-15T07:01:51;15.90;;;8.00;;
56043;SDS011;41912;51.022;3.664;2023-04-15T07:04:16;11.45;;;7.50;;
56043;SDS011;41912;51.022;3.664;2023-04-15T07:06:42;14.88;;;8.18;;
56043;SDS011;41912;51.022;3.664;2023-04-15T07:09:08;16.35;;;8.55;;
56043;SDS011;41912;51.022;3.664;2023-04-15T07:11:34;13.95;;;8.63;;
56043;SDS011;41912;51.022;3.664;2023-04-15T07:14:00;15.15;;;8.88;;
56043;SDS011;41912;51.022;3.664;2023-04-15T07:16:26;19.23;;;8.75;;
56043;SDS011;41912;51.022;3.664;2023-04-15T07:18:51;16.95;;;9.00;;
56043;SDS011;41912;51.022;3.664;2023-04-15T07:21:17;21.35;;;9.48;;
56043;SDS011;41912;51.022;3.664;2023-04-15T07:23:43;21.08;;;8.70;;
56043;SDS011;41912;51.022;3.664;2023-04-15T07:26:09;22.67;;;9.70;;
56043;SDS011;41912;51.022;3.664;2023-04-15T07:28:35;18.38;;;9.23;;
56043;SDS011;41912;51.022;3.664;2023-04-15T07:31:00;18.13;;;9.43;;
56043;SDS011;41912;51.022;3.664;2023-04-15T07:33:26;25.20;;;9.50;;
56043;SDS011;41912;51.022;3.664;2023-04-15T07:35:52;17.00;;;9.30;;
56043;SDS011;41912;51.022;3.664;2023-04-15T07:38:18;14.20;;;8.40;;
56043;SDS011;41912;51.022;3.664;2023-04-15T07:40:43;21.13;;;9.18;;
56043;SDS011;41912;51.022;3.664;2023-04-15T07:43:10;18.15;;;8.55;;
56043;SDS011;41912;51.022;3.664;2023-04-15T07:45:37;21.38;;;8.88;;
56043;SDS011;41912;51.022;3.664;2023-04-15T07:48:03;19.52;;;8.88;;
56043;SDS011;41912;51.022;3.664;2023-04-15T07:50:29;12.88;;;7.40;;
56043;SDS011;41912;51.022;3.664;2023-04-15T07:52:55;18.60;;;8.45;;
56043;SDS011;41912;51.022;3.664;2023-04-15T07:55:21;21.85;;;10.50;;
56043;SDS011;41912;51.022;3.664;2023-04-15T07:57:48;23.58;;;10.02;;
56043;SDS011;41912;51.022;3.664;2023-04-15T08:00:14;26.52;;;12.20;;
56043;SDS011;41912;51.022;3.664;2023-04-15T08:02:41;34.45;;;14.52;;
56043;SDS011;41912;51.022;3.664;2023-04-15T08:05:07;31.48;;;13.38;;
56043;SDS011;41912;51.022;3.664;2023-04-15T08:07:34;27.92;;;13.73;;
56043;SDS011;41912;51.022;3.664;2023-04-15T08:10:03;22.35;;;10.80;;
56043;SDS011;41912;51.022;3.664;2023-04-15T08:12:29;22.02;;;11.13;;
56043;SDS011;41912;51.022;3.664;2023-04-15T08:14:55;19.30;;;10.02;;
56043;SDS011;41912;51.022;3.664;2023-04-15T08:17:21;19.95;;;10.48;;
56043;SDS011;41912;51.022;3.664;2023-04-15T08:19:47;16.88;;;10.52;;
56043;SDS011;41912;51.022;3.664;2023-04-15T08:22:13;19.60;;;10.05;;
56043;SDS011;41912;51.022;3.664;2023-04-15T08:24:39;16.25;;;9.88;;
56043;SDS011;41912;51.022;3.664;2023-04-15T08:27:05;21.05;;;10.05;;
56043;SDS011;41912;51.022;3.664;2023-04-15T08:29:31;19.38;;;10.43;;
56043;SDS011;41912;51.022;3.664;2023-04-15T08:32:00;17.85;;;10.65;;
56043;SDS011;41912;51.022;3.664;2023-04-15T08:34:26;19.00;;;10.90;;
56043;SDS011;41912;51.022;3.664;2023-04-15T08:36:52;21.00;;;12.73;;
56043;SDS011;41912;51.022;3.664;2023-04-15T08:39:18;20.30;;;11.98;;
56043;SDS011;41912;51.022;3.664;2023-04-15T08:41:45;17.83;;;11.48;;
56043;SDS011;41912;51.022;3.664;2023-04-15T08:44:15;21.15;;;11.93;;
56043;SDS011;41912;51.022;3.664;2023-04-15T08:46:41;23.83;;;12.73;;
56043;SDS011;41912;51.022;3.664;2023-04-15T08:49:09;26.40;;;11.52;;
56043;SDS011;41912;51.022;3.664;2023-04-15T08:51:39;20.80;;;13.23;;
56043;SDS011;41912;51.022;3.664;2023-04-15T08:54:05;20.63;;;13.52;;
56043;SDS011;41912;51.022;3.664;2023-04-15T08:56:32;30.75;;;15.68;;
56043;SDS011;41912;51.022;3.664;2023-04-15T08:58:58;25.23;;;13.93;;
56043;SDS011;41912;51.022;3.664;2023-04-15T09:01:24;31.92;;;16.30;;
56043;SDS011;41912;51.022;3.664;2023-04-15T09:03:51;28.85;;;14.38;;
56043;SDS011;41912;51.022;3.664;2023-04-15T09:06:20;32.17;;;16.45;;
56043;SDS011;41912;51.022;3.664;2023-04-15T09:08:48;37.47;;;19.60;;
56043;SDS011;41912;51.022;3.664;2023-04-15T09:11:14;41.50;;;18.85;;
56043;SDS011;41912;51.022;3.664;2023-04-15T09:13:41;38.33;;;17.98;;
56043;SDS011;41912;51.022;3.664;2023-04-15T09:16:07;40.95;;;18.27;;
56043;SDS011;41912;51.022;3.664;2023-04-15T09:18:34;34.53;;;17.45;;
56043;SDS011;41912;51.022;3.664;2023-04-15T09:21:04;29.00;;;14.90;;
56043;SDS011;41912;51.022;3.664;2023-04-15T09:23:35;34.10;;;15.07;;
56043;SDS011;41912;51.022;3.664;2023-04-15T09:26:02;36.40;;;14.80;;
56043;SDS011;41912;51.022;3.664;2023-04-15T09:28:28;29.83;;;14.77;;
56043;SDS011;41912;51.022;3.664;2023-04-15T09:30:55;30.52;;;14.68;;
56043;SDS011;41912;51.022;3.664;2023-04-15T09:33:22;26.73;;;12.98;;
56043;SDS011;41912;51.022;3.664;2023-04-15T09:36:01;26.15;;;13.32;;
56043;SDS011;41912;51.022;3.664;2023-04-15T09:38:29;26.75;;;12.23;;
56043;SDS011;41912;51.022;3.664;2023-04-15T09:40:56;30.23;;;13.70;;
56043;SDS011;41912;51.022;3.664;2023-04-15T09:43:22;37.28;;;15.90;;
56043;SDS011;41912;51.022;3.664;2023-04-15T09:46:01;41.67;;;18.45;;
56043;SDS011;41912;51.022;3.664;2023-04-15T09:48:27;41.88;;;18.35;;
56043;SDS011;41912;51.022;3.664;2023-04-15T09:50:53;39.63;;;16.67;;
56043;SDS011;41912;51.022;3.664;2023-04-15T09:53:23;32.50;;;15.35;;
56043;SDS011;41912;51.022;3.664;2023-04-15T09:55:53;31.67;;;14.43;;
56043;SDS011;41912;51.022;3.664;2023-04-15T09:58:21;25.75;;;13.93;;
56043;SDS011;41912;51.022;3.664;2023-04-15T10:00:52;26.63;;;13.65;;
56043;SDS011;41912;51.022;3.664;2023-04-15T10:03:20;25.17;;;13.45;;
56043;SDS011;41912;51.022;3.664;2023-04-15T10:05:50;26.63;;;12.98;;
56043;SDS011;41912;51.022;3.664;2023-04-15T10:08:18;27.63;;;13.50;;
56043;SDS011;41912;51.022;3.664;2023-04-15T10:10:48;37.92;;;16.77;;
56043;SDS011;41912;51.022;3.664;2023-04-15T10:13:16;35.92;;;15.90;;
56043;SDS011;41912;51.022;3.664;2023-04-15T10:15:43;21.20;;;11.40;;
56043;SDS011;41912;51.022;3.664;2023-04-15T10:18:16;22.45;;;12.52;;
56043;SDS011;41912;51.022;3.664;2023-04-15T10:20:45;20.67;;;12.53;;
56043;SDS011;41912;51.022;3.664;2023-04-15T10:23:12;19.20;;;12.07;;
56043;SDS011;41912;51.022;3.664;2023-04-15T10:25:38;25.10;;;12.60;;
56043;SDS011;41912;51.022;3.664;2023-04-15T10:28:07;24.92;;;12.50;;
56043;SDS011;41912;51.022;3.664;2023-04-15T10:30:33;23.52;;;11.75;;
56043;SDS011;41912;51.022;3.664;2023-04-15T10:33:00;20.55;;;10.63;;
56043;SDS011;41912;51.022;3.664;2023-04-15T10:35:28;21.95;;;11.25;;
56043;SDS011;41912;51.022;3.664;2023-04-15T10:37:56;14.48;;;8.75;;
56043;SDS011;41912;51.022;3.664;2023-04-15T10:42:55;14.68;;;7.60;;
56043;SDS011;41912;51.022;3.664;2023-04-15T10:45:26;15.90;;;7.97;;
56043;SDS011;41912;51.022;3.664;2023-04-15T10:47:56;17.35;;;10.00;;
56043;SDS011;41912;51.022;3.664;2023-04-15T10:50:26;18.35;;;8.45;;
56043;SDS011;41912;51.022;3.664;2023-04-15T10:52:54;14.07;;;7.28;;
56043;SDS011;41912;51.022;3.664;2023-04-15T10:55:25;12.32;;;6.10;;
56043;SDS011;41912;51.022;3.664;2023-04-15T10:57:55;15.02;;;6.38;;
56043;SDS011;41912;51.022;3.664;2023-04-15T11:00:25;14.40;;;7.00;;
56043;SDS011;41912;51.022;3.664;2023-04-15T11:03:06;17.38;;;7.88;;
56043;SDS011;41912;51.022;3.664;2023-04-15T11:08:13;11.63;;;6.32;;
56043;SDS011;41912;51.022;3.664;2023-04-15T11:10:49;17.80;;;6.78;;
56043;SDS011;41912;51.022;3.664;2023-04-15T11:13:16;8.95;;;5.55;;
56043;SDS011;41912;51.022;3.664;2023-04-15T11:15:46;6.50;;;4.05;;
56043;SDS011;41912;51.022;3.664;2023-04-15T11:18:23;8.52;;;4.05;;
56043;SDS011;41912;51.022;3.664;2023-04-15T11:20:51;6.43;;;4.18;;
56043;SDS011;41912;51.022;3.664;2023-04-15T11:23:31;10.98;;;4.35;;
56043;SDS011;41912;51.022;3.664;2023-04-15T11:26:10;6.68;;;3.33;;
56043;SDS011;41912;51.022;3.664;2023-04-15T11:28:40;9.10;;;4.57;;
56043;SDS011;41912;51.022;3.664;2023-04-15T11:33:35;9.82;;;4.53;;
56043;SDS011;41912;51.022;3.664;2023-04-15T11:36:01;9.18;;;4.78;;
56043;SDS011;41912;51.022;3.664;2023-04-15T11:38:28;14.65;;;5.57;;
56043;SDS011;41912;51.022;3.664;2023-04-15T11:40:55;11.00;;;5.10;;
56043;SDS011;41912;51.022;3.664;2023-04-15T11:43:21;13.82;;;4.20;;
56043;SDS011;41912;51.022;3.664;2023-04-15T11:48:13;9.50;;;4.13;;
56043;SDS011;41912;51.022;3.664;2023-04-15T11:50:39;7.70;;;4.03;;
56043;SDS011;41912;51.022;3.664;2023-04-15T11:53:06;7.32;;;3.85;;
56043;SDS011;41912;51.022;3.664;2023-04-15T11:55:40;7.05;;;4.57;;
56043;SDS011;41912;51.022;3.664;2023-04-15T12:00:40;6.40;;;3.78;;
56043;SDS011;41912;51.022;3.664;2023-04-15T12:03:17;8.90;;;4.05;;
56043;SDS011;41912;51.022;3.664;2023-04-15T12:14:03;8.55;;;4.05;;
56043;SDS011;41912;51.022;3.664;2023-04-15T12:16:41;9.10;;;4.47;;
56043;SDS011;41912;51.022;3.664;2023-04-15T12:19:13;15.32;;;7.07;;
56043;SDS011;41912;51.022;3.664;2023-04-15T12:21:46;16.33;;;6.60;;
56043;SDS011;41912;51.022;3.664;2023-04-15T12:24:13;9.85;;;5.63;;
56043;SDS011;41912;51.022;3.664;2023-04-15T12:26:43;10.13;;;5.10;;
56043;SDS011;41912;51.022;3.664;2023-04-15T12:29:10;10.57;;;5.97;;
56043;SDS011;41912;51.022;3.664;2023-04-15T12:31:45;9.82;;;5.30;;
56043;SDS011;41912;51.022;3.664;2023-04-15T12:34:14;10.23;;;5.05;;
56043;SDS011;41912;51.022;3.664;2023-04-15T12:36:40;7.28;;;4.00;;
56043;SDS011;41912;51.022;3.664;2023-04-15T12:39:07;9.38;;;4.47;;
56043;SDS011;41912;51.022;3.664;2023-04-15T12:41:33;8.65;;;4.75;;
56043;SDS011;41912;51.022;3.664;2023-04-15T12:43:59;8.60;;;3.50;;
56043;SDS011;41912;51.022;3.664;2023-04-15T12:46:25;3.90;;;3.35;;
56043;SDS011;41912;51.022;3.664;2023-04-15T12:48:51;8.77;;;4.60;;
56043;SDS011;41912;51.022;3.664;2023-04-15T12:51:17;8.45;;;3.65;;
56043;SDS011;41912;51.022;3.664;2023-04-15T12:53:45;8.68;;;3.22;;
56043;SDS011;41912;51.022;3.664;2023-04-15T12:56:11;7.43;;;3.40;;
56043;SDS011;41912;51.022;3.664;2023-04-15T12:58:37;7.03;;;3.30;;
56043;SDS011;41912;51.022;3.664;2023-04-15T13:01:02;6.57;;;3.20;;
56043;SDS011;41912;51.022;3.664;2023-04-15T13:03:28;7.32;;;3.70;;
56043;SDS011;41912;51.022;3.664;2023-04-15T13:05:54;6.70;;;4.15;;
56043;SDS011;41912;51.022;3.664;2023-04-15T13:08:21;8.80;;;5.13;;
56043;SDS011;41912;51.022;3.664;2023-04-15T13:10:47;9.10;;;4.00;;
56043;SDS011;41912;51.022;3.664;2023-04-15T13:13:13;6.07;;;3.70;;
56043;SDS011;41912;51.022;3.664;2023-04-15T13:15:38;5.70;;;3.80;;
56043;SDS011;41912;51.022;3.664;2023-04-15T13:18:05;5.38;;;3.38;;
56043;SDS011;41912;51.022;3.664;2023-04-15T13:20:31;4.65;;;3.55;;
56043;SDS011;41912;51.022;3.664;2023-04-15T13:22:57;5.93;;;3.50;;
56043;SDS011;41912;51.022;3.664;2023-04-15T13:25:22;5.45;;;3.90;;
56043;SDS011;41912;51.022;3.664;2023-04-15T13:27:48;6.35;;;3.22;;
56043;SDS011;41912;51.022;3.664;2023-04-15T13:30:17;5.57;;;2.90;;
56043;SDS011;41912;51.022;3.664;2023-04-15T13:32:43;6.68;;;3.53;;
56043;SDS011;41912;51.022;3.664;2023-04-15T13:35:08;9.23;;;4.07;;
56043;SDS011;41912;51.022;3.664;2023-04-15T13:37:34;6.88;;;3.38;;
56043;SDS011;41912;51.022;3.664;2023-04-15T13:39:59;7.30;;;2.70;;
56043;SDS011;41912;51.022;3.664;2023-04-15T13:42:25;4.95;;;2.45;;
56043;SDS011;41912;51.022;3.664;2023-04-15T13:44:51;6.82;;;3.08;;
56043;SDS011;41912;51.022;3.664;2023-04-15T13:47:20;7.18;;;3.03;;
56043;SDS011;41912;51.022;3.664;2023-04-15T13:49:46;6.47;;;3.35;;
56043;SDS011;41912;51.022;3.664;2023-04-15T13:52:11;12.65;;;5.30;;
56043;SDS011;41912;51.022;3.664;2023-04-15T13:54:37;13.65;;;5.88;;
56043;SDS011;41912;51.022;3.664;2023-04-15T13:57:03;9.77;;;6.13;;
56043;SDS011;41912;51.022;3.664;2023-04-15T13:59:30;10.13;;;5.60;;
56043;SDS011;41912;51.022;3.664;2023-04-15T14:01:57;11.70;;;5.63;;
56043;SDS011;41912;51.022;3.664;2023-04-15T14:04:22;12.57;;;6.53;;
56043;SDS011;41912;51.022;3.664;2023-04-15T14:06:48;14.15;;;6.72;;
56043;SDS011;41912;51.022;3.664;2023-04-15T14:09:14;8.63;;;5.63;;
56043;SDS011;41912;51.022;3.664;2023-04-15T14:11:40;13.90;;;5.68;;
56043;SDS011;41912;51.022;3.664;2023-04-15T14:14:06;8.63;;;5.50;;
56043;SDS011;41912;51.022;3.664;2023-04-15T14:16:33;10.20;;;5.30;;
56043;SDS011;41912;51.022;3.664;2023-04-15T14:18:58;9.23;;;6.10;;
56043;SDS011;41912;51.022;3.664;2023-04-15T14:21:25;10.10;;;5.28;;
56043;SDS011;41912;51.022;3.664;2023-04-15T14:23:55;8.10;;;5.00;;
56043;SDS011;41912;51.022;3.664;2023-04-15T14:26:21;10.93;;;5.97;;
56043;SDS011;41912;51.022;3.664;2023-04-15T14:28:47;12.82;;;5.78;;
56043;SDS011;41912;51.022;3.664;2023-04-15T14:31:13;16.73;;;5.82;;
56043;SDS011;41912;51.022;3.664;2023-04-15T14:33:38;12.27;;;6.10;;
56043;SDS011;41912;51.022;3.664;2023-04-15T14:36:05;10.98;;;5.95;;
56043;SDS011;41912;51.022;3.664;2023-04-15T14:38:33;12.95;;;5.93;;
56043;SDS011;41912;51.022;3.664;2023-04-15T14:41:04;12.23;;;6.20;;
56043;SDS011;41912;51.022;3.664;2023-04-15T14:43:31;10.27;;;5.80;;
56043;SDS011;41912;51.022;3.664;2023-04-15T14:45:57;10.00;;;5.38;;
56043;SDS011;41912;51.022;3.664;2023-04-15T14:48:22;9.07;;;4.03;;
56043;SDS011;41912;51.022;3.664;2023-04-15T14:50:48;9.05;;;4.50;;
56043;SDS011;41912;51.022;3.664;2023-04-15T14:53:14;9.70;;;4.30;;
56043;SDS011;41912;51.022;3.664;2023-04-15T14:55:40;9.00;;;4.15;;